createdAt,value
2023-03-02T00:00:48.515Z,97514.81
2023-03-02T00:03:43.419Z,97516.63
2023-03-02T00:08:01.930Z,97560.38
2023-03-02T00:10:16.940Z,97526.78
2023-03-02T00:13:09.714Z,97530.34
2023-03-02T00:15:52.379Z,97529.19
2023-03-02T00:21:28.276Z,97567.66
2023-03-02T00:24:38.015Z,97525.00
2023-03-02T00:27:09.971Z,97540.53
2023-03-02T00:30:44.989Z,97526.91
2023-03-02T00:35:52.137Z,97518.63
2023-03-02T00:38:26.919Z,97539.31
2023-03-02T00:41:30.312Z,97528.94
2023-03-02T00:44:02.506Z,97520.06
2023-03-02T00:46:51.271Z,97522.53
2023-03-02T00:49:29.323Z,97513.44
2023-03-02T00:52:11.009Z,97541.53
2023-03-02T00:55:10.314Z,97523.78
2023-03-02T00:57:43.645Z,97532.72
2023-03-02T01:00:23.431Z,97556.09
2023-03-02T01:03:43.259Z,97516.66
2023-03-02T01:05:52.493Z,97499.22
2023-03-02T01:08:19.944Z,97510.22
2023-03-02T01:10:54.115Z,97558.38
2023-03-02T01:14:08.788Z,97556.47
2023-03-02T01:18:04.923Z,97537.25
2023-03-02T01:20:07.218Z,97540.69
2023-03-02T01:22:42.637Z,97514.00
2023-03-02T01:25:31.495Z,97526.41
2023-03-02T01:28:40.001Z,97548.69
2023-03-02T01:34:54.748Z,97509.00
2023-03-02T01:37:47.817Z,97549.84
2023-03-02T01:40:35.538Z,97542.22
2023-03-02T01:43:54.494Z,97520.09
2023-03-02T01:46:39.878Z,97551.72
2023-03-02T01:49:35.328Z,97539.59
2023-03-02T01:52:52.647Z,97491.69
2023-03-02T01:55:36.566Z,97515.78
2023-03-02T01:58:15.682Z,97510.25
2023-03-02T02:04:05.212Z,97509.09
2023-03-02T02:10:13.355Z,97525.25
2023-03-02T02:24:39.200Z,97559.72
2023-03-02T02:27:17.322Z,97534.50
2023-03-02T02:30:05.192Z,97557.84
2023-03-02T02:32:38.154Z,97531.38
2023-03-02T02:39:59.340Z,97531.59
2023-03-02T02:42:42.234Z,97540.81
2023-03-02T02:45:41.740Z,97521.88
2023-03-02T02:52:11.914Z,97548.31
2023-03-02T02:56:35.665Z,97542.56
2023-03-02T02:58:48.326Z,97535.91
2023-03-02T03:02:37.274Z,97551.03
2023-03-02T03:07:34.514Z,97508.72
2023-03-02T03:10:51.417Z,97517.44
2023-03-02T03:14:02.264Z,97532.94
2023-03-02T03:23:11.119Z,97515.31
2023-03-02T03:32:09.839Z,97534.44
2023-03-02T03:34:59.578Z,97540.13
2023-03-02T03:38:03.473Z,97490.44
2023-03-02T03:43:45.160Z,97513.44
2023-03-02T03:49:06.521Z,97545.81
2023-03-02T03:52:51.760Z,97503.66
2023-03-02T03:55:04.040Z,97523.19
2023-03-02T03:58:24.620Z,97528.03
2023-03-02T04:00:47.884Z,97524.53
2023-03-02T04:06:42.962Z,97561.69
2023-03-02T04:13:10.978Z,97529.50
2023-03-02T04:19:13.369Z,97554.38
2023-03-02T04:29:02.142Z,97586.56
2023-03-02T04:32:12.034Z,97554.81
2023-03-02T04:51:05.737Z,97554.97
2023-03-02T04:58:37.577Z,97566.75
2023-03-02T05:01:55.580Z,97605.00
2023-03-02T05:11:38.090Z,97614.03
2023-03-02T10:24:30.913Z,97769.75
2023-03-02T10:49:07.526Z,97743.75
2023-03-02T10:54:38.810Z,97752.06
2023-03-02T11:41:47.523Z,97755.16
2023-03-02T14:24:31.161Z,97727.06
2023-03-02T14:27:04.535Z,97716.47
2023-03-02T14:36:55.082Z,97738.34
2023-03-02T14:43:06.860Z,97718.34
2023-03-02T14:52:56.389Z,97753.41
2023-03-02T15:00:53.556Z,97732.59
2023-03-02T15:03:26.638Z,97735.97
2023-03-02T15:24:42.030Z,97740.06
2023-03-02T15:43:29.541Z,97703.09
2023-03-02T15:45:57.233Z,97716.69
2023-03-02T15:48:25.319Z,97720.84
2023-03-02T15:51:11.552Z,97699.72
2023-03-02T15:53:39.192Z,97709.88
2023-03-02T15:56:14.227Z,97716.63
2023-03-02T15:58:45.295Z,97720.03
2023-03-02T16:01:13.244Z,97708.34
2023-03-02T16:03:40.884Z,97730.19
2023-03-02T16:06:10.090Z,97718.06
2023-03-02T16:08:38.037Z,97711.91
2023-03-02T16:19:46.738Z,97704.31
2023-03-02T17:01:43.561Z,97714.88
2023-03-02T17:13:28.709Z,97695.53
2023-03-02T17:16:07.186Z,97688.44
2023-03-02T17:18:48.608Z,97712.22
2023-03-02T19:26:48.952Z,97598.97
2023-03-02T19:29:20.676Z,97595.19
2023-03-02T19:42:01.251Z,97586.56
2023-03-02T22:09:13.316Z,97458.25
2023-03-02T22:11:41.683Z,97451.84
2023-03-02T22:14:18.884Z,97425.81
2023-03-02T22:16:50.120Z,97438.25
2023-03-02T22:19:43.709Z,97449.16
2023-03-02T22:22:32.676Z,97450.25
2023-03-02T22:25:00.579Z,97443.09
2023-03-02T22:27:33.104Z,97457.38
2023-03-02T22:30:03.269Z,97439.25
2023-03-02T22:32:39.827Z,97425.72
2023-03-02T22:35:27.667Z,97420.47
2023-03-02T22:38:11.404Z,97418.66
2023-03-02T22:44:14.098Z,97410.41
2023-03-02T22:46:45.386Z,97394.63
2023-03-02T22:52:24.955Z,97413.81
2023-03-02T22:54:52.867Z,97391.25
2023-03-02T22:57:32.310Z,97398.78
2023-03-02T23:00:12.646Z,97422.09
2023-03-02T23:02:43.942Z,97395.75
2023-03-02T23:05:37.844Z,97376.53
2023-03-02T23:08:20.859Z,97408.94
2023-03-02T23:10:50.167Z,97393.50
2023-03-02T23:13:21.046Z,97368.66
2023-03-02T23:15:50.870Z,97382.56
2023-03-02T23:18:30.392Z,97373.91
2023-03-02T23:20:58.316Z,97389.34
2023-03-02T23:23:27.996Z,97373.91
2023-03-02T23:26:02.021Z,97374.28
2023-03-02T23:28:29.694Z,97379.56
2023-03-02T23:30:57.248Z,97358.47
2023-03-02T23:33:24.988Z,97362.59
2023-03-02T23:35:53.269Z,97357.34
2023-03-02T23:38:27.717Z,97383.31
2023-03-02T23:40:55.831Z,97376.94
2023-03-02T23:43:23.713Z,97360.00
2023-03-02T23:45:51.529Z,97364.16
2023-03-02T23:48:19.800Z,97350.97
2023-03-02T23:50:47.317Z,97328.75
2023-03-02T23:53:15.989Z,97362.25
2023-03-02T23:55:48.638Z,97352.81
2023-03-02T23:58:33.990Z,97368.63
